CCM26C LFKB-LIMC
Flight info
| Callsign | CCM26C |
|---|---|
| Flight time | 0h 39m |
| Altitude | 26000 |
| Route | MEGER Z911 OLETI/N0370F180 M858 ULCOR |
| Aircraft | A320/M-SDE3FGHIRWY/LB1 |
Departure
| Time | 2026-05-01 11:47 |
|---|---|
| Airport | Bastia-Poretta International airport (LFKB) |
Arrival
| Time | 2026-05-01 12:26 |
|---|---|
| Airport | Milan Malpensa International Airport (LIMC) |
| Time | Latitude | Longitude | Altitude | Speed | Heading |
|---|---|---|---|---|---|
| 2026-05-01 11:20 | 42.54575 | 9.48267 | 41 ft | 0 kts | 282° |
| 2026-05-01 11:42 | 42.54577 | 9.48260 | 41 ft | 3 kts | 289° |
| 2026-05-01 11:42 | 42.54588 | 9.48254 | 40 ft | 1 kts | 1° |
| 2026-05-01 11:42 | 42.54590 | 9.48258 | 40 ft | 0 kts | 38° |
| 2026-05-01 11:43 | 42.54590 | 9.48275 | 39 ft | 3 kts | 79° |
| 2026-05-01 11:43 | 42.54594 | 9.48300 | 40 ft | 4 kts | 77° |
| 2026-05-01 11:43 | 42.54594 | 9.48368 | 41 ft | 7 kts | 120° |
| 2026-05-01 11:44 | 42.54514 | 9.48413 | 41 ft | 6 kts | 162° |
| 2026-05-01 11:44 | 42.54465 | 9.48419 | 41 ft | 7 kts | 184° |
| 2026-05-01 11:44 | 42.54422 | 9.48410 | 42 ft | 7 kts | 182° |
| 2026-05-01 11:44 | 42.54350 | 9.48437 | 42 ft | 11 kts | 163° |
| 2026-05-01 11:45 | 42.54286 | 9.48464 | 43 ft | 9 kts | 163° |
| 2026-05-01 11:45 | 42.54232 | 9.48486 | 43 ft | 7 kts | 163° |
| 2026-05-01 11:45 | 42.54186 | 9.48507 | 41 ft | 7 kts | 156° |
| 2026-05-01 11:45 | 42.54150 | 9.48551 | 43 ft | 8 kts | 126° |
| 2026-05-01 11:46 | 42.54130 | 9.48609 | 40 ft | 6 kts | 106° |
| 2026-05-01 11:46 | 42.54130 | 9.48681 | 44 ft | 14 kts | 75° |
| 2026-05-01 11:46 | 42.54175 | 9.48779 | 44 ft | 9 kts | 50° |
| 2026-05-01 11:46 | 42.54227 | 9.48806 | 44 ft | 9 kts | 350° |
| 2026-05-01 11:47 | 42.54327 | 9.48765 | 42 ft | 35 kts | 342° |
| 2026-05-01 11:47 | 42.54802 | 9.48567 | 39 ft | 104 kts | 343° |
| 2026-05-01 11:47 | 42.55659 | 9.48208 | 122 ft | 146 kts | 342° |
| 2026-05-01 11:47 | 42.56635 | 9.47825 | 823 ft | 146 kts | 346° |
| 2026-05-01 11:48 | 42.57623 | 9.47569 | 1526 ft | 144 kts | 352° |
| 2026-05-01 11:48 | 42.58643 | 9.47427 | 2037 ft | 155 kts | 356° |
| 2026-05-01 11:48 | 42.59797 | 9.47407 | 2350 ft | 177 kts | 4° |
| 2026-05-01 11:48 | 42.61103 | 9.47582 | 2661 ft | 201 kts | 11° |
| 2026-05-01 11:49 | 42.62522 | 9.48010 | 3024 ft | 224 kts | 18° |
| 2026-05-01 11:49 | 42.64058 | 9.48752 | 3561 ft | 241 kts | 24° |
| 2026-05-01 11:49 | 42.65641 | 9.49574 | 4430 ft | 246 kts | 23° |
| 2026-05-01 11:49 | 42.67247 | 9.50400 | 5386 ft | 248 kts | 22° |
| 2026-05-01 11:50 | 42.68874 | 9.51236 | 6283 ft | 252 kts | 22° |
| 2026-05-01 11:50 | 42.70525 | 9.52083 | 7136 ft | 256 kts | 21° |
| 2026-05-01 11:50 | 42.72210 | 9.52901 | 7998 ft | 259 kts | 17° |
| 2026-05-01 11:50 | 42.73965 | 9.53541 | 8870 ft | 262 kts | 16° |
| 2026-05-01 11:51 | 42.75734 | 9.54185 | 9727 ft | 265 kts | 16° |
| 2026-05-01 11:51 | 42.77521 | 9.54840 | 10565 ft | 269 kts | 16° |
| 2026-05-01 11:51 | 42.79397 | 9.55533 | 10873 ft | 291 kts | 16° |
| 2026-05-01 11:51 | 42.81422 | 9.56287 | 11178 ft | 311 kts | 16° |
| 2026-05-01 11:52 | 42.83508 | 9.57061 | 11809 ft | 317 kts | 17° |
| 2026-05-01 11:52 | 42.85639 | 9.57851 | 12613 ft | 318 kts | 17° |
| 2026-05-01 11:52 | 42.87783 | 9.58647 | 13401 ft | 320 kts | 17° |
| 2026-05-01 11:52 | 42.89940 | 9.59447 | 14089 ft | 323 kts | 17° |
| 2026-05-01 11:53 | 42.92111 | 9.60251 | 14275 ft | 323 kts | 17° |
| 2026-05-01 11:53 | 42.94274 | 9.61054 | 14322 ft | 322 kts | 17° |
| 2026-05-01 11:53 | 42.96467 | 9.61702 | 14325 ft | 324 kts | 7° |
| 2026-05-01 11:53 | 42.98722 | 9.61548 | 14326 ft | 329 kts | 352° |
| 2026-05-01 11:54 | 43.00894 | 9.60498 | 14326 ft | 336 kts | 336° |
| 2026-05-01 11:54 | 43.02776 | 9.58619 | 14326 ft | 345 kts | 322° |
| 2026-05-01 11:54 | 43.04497 | 9.56315 | 14328 ft | 347 kts | 321° |
| 2026-05-01 11:54 | 43.06223 | 9.54001 | 14330 ft | 348 kts | 321° |
| 2026-05-01 11:55 | 43.07950 | 9.51684 | 14328 ft | 348 kts | 321° |
| 2026-05-01 11:55 | 43.09676 | 9.49366 | 14328 ft | 348 kts | 321° |
| 2026-05-01 11:55 | 43.11405 | 9.47043 | 14328 ft | 348 kts | 321° |
| 2026-05-01 11:55 | 43.13128 | 9.44723 | 14318 ft | 349 kts | 320° |
| 2026-05-01 11:56 | 43.14861 | 9.42388 | 14328 ft | 349 kts | 320° |
| 2026-05-01 11:56 | 43.16591 | 9.40053 | 14328 ft | 349 kts | 320° |
| 2026-05-01 11:56 | 43.18318 | 9.37719 | 14329 ft | 349 kts | 320° |
| 2026-05-01 11:56 | 43.20047 | 9.35383 | 14328 ft | 349 kts | 320° |
| 2026-05-01 11:57 | 43.21753 | 9.33074 | 14328 ft | 349 kts | 320° |
| 2026-05-01 11:57 | 43.22920 | 9.31491 | 14328 ft | 349 kts | 320° |
| 2026-05-01 11:57 | 43.25209 | 9.28389 | 14328 ft | 349 kts | 320° |
| 2026-05-01 11:57 | 43.26937 | 9.26045 | 14328 ft | 350 kts | 320° |
| 2026-05-01 11:58 | 43.28673 | 9.23695 | 14329 ft | 350 kts | 320° |
| 2026-05-01 11:58 | 43.30405 | 9.21345 | 14334 ft | 350 kts | 320° |
| 2026-05-01 11:58 | 43.34268 | 9.17474 | 14359 ft | 342 kts | 340° |
| 2026-05-01 11:59 | 43.36521 | 9.16441 | 14945 ft | 341 kts | 350° |
| 2026-05-01 11:59 | 43.38802 | 9.15662 | 15615 ft | 344 kts | 349° |
| 2026-05-01 11:59 | 43.41131 | 9.14853 | 16251 ft | 347 kts | 349° |
| 2026-05-01 12:00 | 43.45870 | 9.13191 | 17479 ft | 355 kts | 350° |
| 2026-05-01 12:00 | 43.48276 | 9.12349 | 18050 ft | 359 kts | 350° |
| 2026-05-01 12:00 | 43.53180 | 9.10630 | 19153 ft | 367 kts | 350° |
| 2026-05-01 12:01 | 43.55660 | 9.09758 | 19696 ft | 369 kts | 349° |
| 2026-05-01 12:01 | 43.58155 | 9.08884 | 20220 ft | 371 kts | 349° |
| 2026-05-01 12:01 | 43.60641 | 9.08015 | 20672 ft | 376 kts | 349° |
| 2026-05-01 12:01 | 43.63188 | 9.07123 | 21175 ft | 379 kts | 349° |
| 2026-05-01 12:02 | 43.65751 | 9.06220 | 21700 ft | 381 kts | 349° |
| 2026-05-01 12:02 | 43.68329 | 9.05315 | 22206 ft | 383 kts | 349° |
| 2026-05-01 12:02 | 43.70921 | 9.04405 | 22721 ft | 385 kts | 348° |
| 2026-05-01 12:02 | 43.73524 | 9.03489 | 23227 ft | 388 kts | 348° |
| 2026-05-01 12:03 | 43.76150 | 9.02565 | 23718 ft | 390 kts | 348° |
| 2026-05-01 12:03 | 43.78783 | 9.01648 | 24148 ft | 391 kts | 349° |
| 2026-05-01 12:03 | 43.81476 | 9.01122 | 24538 ft | 391 kts | 359° |
| 2026-05-01 12:03 | 43.84158 | 9.01242 | 24921 ft | 392 kts | 6° |
| 2026-05-01 12:04 | 43.86879 | 9.01581 | 25303 ft | 394 kts | 6° |
| 2026-05-01 12:04 | 43.89615 | 9.01916 | 25669 ft | 396 kts | 6° |
| 2026-05-01 12:04 | 43.92369 | 9.02251 | 26036 ft | 399 kts | 6° |
| 2026-05-01 12:04 | 43.95140 | 9.02585 | 26280 ft | 400 kts | 6° |
| 2026-05-01 12:05 | 43.97897 | 9.02909 | 26328 ft | 394 kts | 6° |
| 2026-05-01 12:05 | 44.03321 | 9.03546 | 26331 ft | 390 kts | 6° |
| 2026-05-01 12:05 | 44.05990 | 9.03863 | 26331 ft | 390 kts | 6° |
| 2026-05-01 12:06 | 44.08689 | 9.04183 | 26330 ft | 390 kts | 6° |
| 2026-05-01 12:06 | 44.11399 | 9.04506 | 26331 ft | 391 kts | 6° |
| 2026-05-01 12:06 | 44.14113 | 9.04828 | 26331 ft | 391 kts | 6° |
| 2026-05-01 12:06 | 44.16824 | 9.05147 | 26331 ft | 391 kts | 6° |
| 2026-05-01 12:07 | 44.19532 | 9.05468 | 26330 ft | 391 kts | 6° |
| 2026-05-01 12:07 | 44.22245 | 9.05791 | 26330 ft | 391 kts | 6° |
| 2026-05-01 12:07 | 44.24961 | 9.06117 | 26330 ft | 391 kts | 6° |
| 2026-05-01 12:07 | 44.27668 | 9.06444 | 26324 ft | 391 kts | 6° |
| 2026-05-01 12:08 | 44.30337 | 9.06767 | 26148 ft | 387 kts | 6° |
| 2026-05-01 12:08 | 44.33005 | 9.07089 | 25902 ft | 383 kts | 6° |
| 2026-05-01 12:08 | 44.35650 | 9.07406 | 25636 ft | 379 kts | 6° |
| 2026-05-01 12:08 | 44.38256 | 9.07716 | 25204 ft | 373 kts | 6° |
| 2026-05-01 12:09 | 44.40834 | 9.08022 | 24741 ft | 370 kts | 6° |
| 2026-05-01 12:09 | 44.43393 | 9.08009 | 24278 ft | 368 kts | 356° |
| 2026-05-01 12:09 | 44.45924 | 9.07511 | 23793 ft | 366 kts | 354° |
| 2026-05-01 12:09 | 44.48427 | 9.06990 | 23303 ft | 361 kts | 354° |
| 2026-05-01 12:10 | 44.50898 | 9.06482 | 22865 ft | 357 kts | 354° |
| 2026-05-01 12:10 | 44.55738 | 9.05483 | 21983 ft | 351 kts | 354° |
| 2026-05-01 12:10 | 44.58143 | 9.04984 | 21534 ft | 348 kts | 354° |
| 2026-05-01 12:11 | 44.62907 | 9.04004 | 20646 ft | 344 kts | 354° |
| 2026-05-01 12:11 | 44.65276 | 9.03520 | 20184 ft | 344 kts | 354° |
| 2026-05-01 12:11 | 44.67643 | 9.03036 | 19729 ft | 344 kts | 354° |
| 2026-05-01 12:12 | 44.70009 | 9.02550 | 19265 ft | 344 kts | 354° |
| 2026-05-01 12:12 | 44.72345 | 9.02068 | 18809 ft | 344 kts | 354° |
| 2026-05-01 12:12 | 44.74709 | 9.01578 | 18309 ft | 344 kts | 354° |
| 2026-05-01 12:12 | 44.77072 | 9.01087 | 17842 ft | 342 kts | 354° |
| 2026-05-01 12:13 | 44.79419 | 9.00601 | 17376 ft | 340 kts | 354° |
| 2026-05-01 12:13 | 44.81758 | 9.00116 | 16934 ft | 339 kts | 354° |
| 2026-05-01 12:13 | 44.84082 | 8.99634 | 16485 ft | 337 kts | 354° |
| 2026-05-01 12:13 | 44.86399 | 8.99157 | 16041 ft | 336 kts | 354° |
| 2026-05-01 12:14 | 44.88710 | 8.98679 | 15595 ft | 335 kts | 354° |
| 2026-05-01 12:14 | 44.91015 | 8.98192 | 15155 ft | 335 kts | 354° |
| 2026-05-01 12:14 | 44.93318 | 8.97701 | 14704 ft | 334 kts | 354° |
| 2026-05-01 12:14 | 44.95581 | 8.97214 | 14265 ft | 333 kts | 353° |
| 2026-05-01 12:15 | 44.97844 | 8.96494 | 13778 ft | 334 kts | 347° |
| 2026-05-01 12:15 | 45.00085 | 8.95625 | 13203 ft | 335 kts | 347° |
| 2026-05-01 12:15 | 45.02338 | 8.94763 | 12712 ft | 335 kts | 347° |
| 2026-05-01 12:15 | 45.04598 | 8.93897 | 11924 ft | 341 kts | 347° |
| 2026-05-01 12:16 | 45.06883 | 8.93009 | 11102 ft | 337 kts | 346° |
| 2026-05-01 12:16 | 45.09091 | 8.92139 | 10702 ft | 320 kts | 346° |
| 2026-05-01 12:16 | 45.11152 | 8.91319 | 10535 ft | 298 kts | 347° |
| 2026-05-01 12:16 | 45.13113 | 8.90539 | 10065 ft | 288 kts | 347° |
| 2026-05-01 12:17 | 45.14380 | 8.90038 | 9965 ft | 287 kts | 346° |
| 2026-05-01 12:17 | 45.16928 | 8.89034 | 9778 ft | 287 kts | 346° |
| 2026-05-01 12:17 | 45.18866 | 8.88270 | 9287 ft | 290 kts | 347° |
| 2026-05-01 12:17 | 45.20789 | 8.87508 | 8868 ft | 283 kts | 346° |
| 2026-05-01 12:18 | 45.22684 | 8.86756 | 8164 ft | 282 kts | 346° |
| 2026-05-01 12:18 | 45.24571 | 8.86007 | 7524 ft | 281 kts | 346° |
| 2026-05-01 12:18 | 45.26436 | 8.85267 | 6900 ft | 276 kts | 345° |
| 2026-05-01 12:18 | 45.28279 | 8.84535 | 6300 ft | 273 kts | 346° |
| 2026-05-01 12:19 | 45.29480 | 8.84058 | 5930 ft | 268 kts | 345° |
| 2026-05-01 12:19 | 45.31266 | 8.83349 | 5372 ft | 262 kts | 345° |
| 2026-05-01 12:19 | 45.32954 | 8.82678 | 5188 ft | 242 kts | 345° |
| 2026-05-01 12:19 | 45.34510 | 8.82059 | 5070 ft | 223 kts | 345° |
| 2026-05-01 12:20 | 45.36385 | 8.81312 | 4946 ft | 201 kts | 345° |
| 2026-05-01 12:20 | 45.37717 | 8.80782 | 4867 ft | 198 kts | 345° |
| 2026-05-01 12:20 | 45.39016 | 8.80264 | 4792 ft | 186 kts | 345° |
| 2026-05-01 12:20 | 45.39828 | 8.79906 | 4730 ft | 177 kts | 345° |
| 2026-05-01 12:21 | 45.40970 | 8.79480 | 4649 ft | 164 kts | 348° |
| 2026-05-01 12:21 | 45.42049 | 8.79144 | 4539 ft | 159 kts | 349° |
| 2026-05-01 12:21 | 45.43123 | 8.78835 | 4347 ft | 156 kts | 351° |
| 2026-05-01 12:21 | 45.44178 | 8.78540 | 4200 ft | 154 kts | 350° |
| 2026-05-01 12:22 | 45.45224 | 8.78250 | 3996 ft | 154 kts | 350° |
| 2026-05-01 12:22 | 45.46278 | 8.77960 | 3783 ft | 154 kts | 350° |
| 2026-05-01 12:22 | 45.47339 | 8.77668 | 3575 ft | 155 kts | 350° |
| 2026-05-01 12:22 | 45.48401 | 8.77377 | 3367 ft | 156 kts | 349° |
| 2026-05-01 12:23 | 45.49464 | 8.77085 | 3158 ft | 155 kts | 349° |
| 2026-05-01 12:23 | 45.50525 | 8.76793 | 2947 ft | 154 kts | 350° |
| 2026-05-01 12:23 | 45.51563 | 8.76507 | 2757 ft | 154 kts | 350° |
| 2026-05-01 12:23 | 45.52601 | 8.76222 | 2553 ft | 149 kts | 350° |
| 2026-05-01 12:24 | 45.53617 | 8.75943 | 2348 ft | 147 kts | 349° |
| 2026-05-01 12:24 | 45.54614 | 8.75668 | 2137 ft | 145 kts | 349° |
| 2026-05-01 12:24 | 45.55608 | 8.75395 | 1921 ft | 145 kts | 350° |
| 2026-05-01 12:24 | 45.56596 | 8.75123 | 1743 ft | 145 kts | 350° |
| 2026-05-01 12:25 | 45.57587 | 8.74850 | 1548 ft | 145 kts | 350° |
| 2026-05-01 12:25 | 45.59543 | 8.74310 | 1154 ft | 142 kts | 350° |
| 2026-05-01 12:25 | 45.60493 | 8.74049 | 965 ft | 140 kts | 349° |
| 2026-05-01 12:26 | 45.61443 | 8.73786 | 786 ft | 139 kts | 349° |
| 2026-05-01 12:26 | 45.62967 | 8.73365 | 731 ft | 68 kts | 349° |
| 2026-05-01 12:26 | 45.63190 | 8.73203 | 736 ft | 20 kts | 305° |
| 2026-05-01 12:27 | 45.63271 | 8.73048 | 740 ft | 19 kts | 303° |
| 2026-05-01 12:27 | 45.63394 | 8.72789 | 745 ft | 14 kts | 304° |
| 2026-05-01 12:28 | 45.63565 | 8.72673 | 749 ft | 15 kts | 349° |
| 2026-05-01 12:28 | 45.63660 | 8.72646 | 749 ft | 14 kts | 349° |
| 2026-05-01 12:28 | 45.63857 | 8.72592 | 755 ft | 15 kts | 350° |
| 2026-05-01 12:29 | 45.63959 | 8.72563 | 755 ft | 17 kts | 347° |
| 2026-05-01 12:29 | 45.64076 | 8.72525 | 759 ft | 17 kts | 345° |
| 2026-05-01 12:29 | 45.64306 | 8.72459 | 764 ft | 17 kts | 349° |
| 2026-05-01 12:30 | 45.64439 | 8.72345 | 767 ft | 12 kts | 259° |
| 2026-05-01 12:30 | 45.64425 | 8.72227 | 768 ft | 13 kts | 266° |
| 2026-05-01 12:30 | 45.64471 | 8.72130 | 769 ft | 12 kts | 337° |
| 2026-05-01 12:31 | 45.64554 | 8.72105 | 770 ft | 13 kts | 349° |
| 2026-05-01 12:31 | 45.64626 | 8.72091 | 771 ft | 7 kts | 10° |
| 2026-05-01 12:31 | 45.64663 | 8.72125 | 771 ft | 4 kts | 38° |
| 2026-05-01 12:31 | 45.64673 | 8.72137 | 771 ft | 0 kts | 40° |
| 2026-05-01 12:32 | 45.64678 | 8.72143 | 771 ft | 3 kts | 38° |
| 2026-05-01 12:32 | 45.64681 | 8.72146 | 771 ft | 0 kts | 38° |